createdAt,value
2023-02-18T02:41:35.003Z,2.17
2023-02-18T02:44:14.815Z,1.80
2023-02-18T02:46:46.509Z,1.70
2023-02-18T02:49:19.919Z,1.83
2023-02-18T02:51:51.210Z,2.20
2023-02-18T02:54:22.047Z,2.58
2023-02-18T02:56:49.349Z,2.80
2023-02-18T02:59:26.572Z,2.30
2023-02-18T03:02:22.620Z,2.55
2023-02-18T03:05:08.389Z,2.80
2023-02-18T03:08:04.940Z,2.83
2023-02-18T03:10:52.255Z,2.38
2023-02-18T03:16:40.195Z,2.72
2023-02-18T03:19:25.481Z,1.92
2023-02-18T03:22:07.215Z,2.80
2023-02-18T03:24:35.821Z,2.17
2023-02-18T03:27:43.629Z,2.88
2023-02-18T03:30:18.126Z,2.85
2023-02-18T03:32:48.061Z,3.08
2023-02-18T03:35:18.961Z,2.30
2023-02-18T03:37:53.029Z,1.88
2023-02-18T03:40:22.940Z,2.08
2023-02-18T03:42:50.422Z,2.65
2023-02-18T03:45:17.848Z,2.33
2023-02-18T03:47:46.091Z,2.10
2023-02-18T03:50:15.957Z,1.83
2023-02-18T03:52:43.483Z,2.45
2023-02-18T03:55:10.790Z,2.30
2023-02-18T03:57:38.291Z,2.53
2023-02-18T04:00:07.101Z,3.10
2023-02-18T04:02:41.419Z,3.65
2023-02-18T04:05:09.359Z,4.80
2023-02-18T04:07:37.020Z,3.00
2023-02-18T04:10:06.484Z,1.55
2023-02-18T04:12:34.277Z,1.88
2023-02-18T04:15:01.490Z,1.70
2023-02-18T04:17:29.130Z,2.00
2023-02-18T04:19:56.306Z,1.90
2023-02-18T04:22:23.798Z,1.80
2023-02-18T04:24:50.950Z,1.80
2023-02-18T04:27:18.420Z,2.00
2023-02-18T04:29:45.764Z,2.60
2023-02-18T04:32:13.204Z,2.95
2023-02-18T04:34:40.450Z,3.10
2023-02-18T04:37:08.234Z,2.17
2023-02-18T04:39:35.554Z,2.45
2023-02-18T04:42:09.002Z,1.67
2023-02-18T04:44:37.435Z,1.85
2023-02-18T04:47:06.716Z,1.90
2023-02-18T04:49:34.636Z,2.10
2023-02-18T04:52:02.395Z,2.35
2023-02-18T04:54:29.586Z,1.90
2023-02-18T04:56:57.035Z,2.08
2023-02-18T04:59:24.366Z,2.13
2023-02-18T05:01:51.802Z,2.10
2023-02-18T05:04:19.130Z,2.03
2023-02-18T05:06:46.638Z,1.60
2023-02-18T05:09:14.086Z,1.63
2023-02-18T05:11:42.369Z,1.88
2023-02-18T05:14:09.811Z,1.67
2023-02-18T05:16:37.333Z,1.55
2023-02-18T05:19:04.701Z,1.52
2023-02-18T05:21:32.763Z,1.88
2023-02-18T05:24:00.257Z,1.75
2023-02-18T05:26:27.791Z,1.65
2023-02-18T05:28:57.456Z,1.80
2023-02-18T05:31:25.155Z,2.17
2023-02-18T05:33:52.441Z,1.45
2023-02-18T05:36:20.048Z,2.40
2023-02-18T05:38:47.221Z,1.48
2023-02-18T05:41:15.015Z,1.80
2023-02-18T05:44:11.508Z,2.17
2023-02-18T05:49:06.451Z,2.60
2023-02-18T05:51:34.088Z,2.67
2023-02-18T05:54:01.489Z,1.52
2023-02-18T05:56:29.035Z,1.50
2023-02-18T05:58:56.170Z,1.45
2023-02-18T06:01:23.785Z,0.95
2023-02-18T06:03:50.982Z,1.40
2023-02-18T06:06:18.704Z,2.10
2023-02-18T06:08:45.879Z,1.08
2023-02-18T06:11:13.479Z,1.10
2023-02-18T06:13:40.652Z,1.15
2023-02-18T06:16:08.590Z,0.98
2023-02-18T06:18:35.941Z,1.00
2023-02-18T06:21:04.231Z,1.02
2023-02-18T06:23:31.477Z,1.20
2023-02-18T06:25:58.972Z,1.20
2023-02-18T06:28:26.221Z,1.50
2023-02-18T06:30:53.994Z,1.63
2023-02-18T06:33:21.217Z,1.98
2023-02-18T06:35:57.019Z,1.75
2023-02-18T06:38:24.327Z,1.33
2023-02-18T06:40:52.218Z,2.70
2023-02-18T06:43:20.740Z,1.50
2023-02-18T06:45:48.435Z,1.20
2023-02-18T06:48:17.056Z,2.13
2023-02-18T06:50:44.986Z,2.15
2023-02-18T06:53:12.970Z,2.03
2023-02-18T06:55:40.491Z,1.50
2023-02-18T06:58:08.296Z,1.45
2023-02-18T07:00:36.684Z,2.63
2023-02-18T07:03:05.067Z,1.92
2023-02-18T07:05:33.091Z,2.45
2023-02-18T07:08:01.016Z,2.22
2023-02-18T07:10:29.091Z,1.52
2023-02-18T07:12:56.368Z,1.38
2023-02-18T07:15:24.537Z,1.20
2023-02-18T07:17:52.210Z,0.80
2023-02-18T07:20:21.442Z,1.80
2023-02-18T07:22:49.756Z,1.80
2023-02-18T07:25:17.812Z,2.17
2023-02-18T07:27:45.263Z,2.45
2023-02-18T07:30:13.650Z,2.05
2023-02-18T07:32:41.053Z,2.50
2023-02-18T07:35:08.854Z,2.70
2023-02-18T07:37:36.263Z,1.50
2023-02-18T07:40:04.359Z,1.70
2023-02-18T07:42:32.665Z,1.40
2023-02-18T07:45:00.408Z,1.60
2023-02-18T07:47:28.020Z,1.05
2023-02-18T07:49:56.417Z,1.77
2023-02-18T07:52:24.835Z,1.67
2023-02-18T07:54:52.765Z,1.80
2023-02-18T07:57:20.501Z,1.80
2023-02-18T07:59:48.619Z,2.17
2023-02-18T08:02:21.885Z,2.05
2023-02-18T08:04:50.512Z,1.80
2023-02-18T08:07:21.199Z,1.60
2023-02-18T08:09:51.092Z,1.50
2023-02-18T08:12:18.773Z,1.95
2023-02-18T08:14:46.950Z,1.80
2023-02-18T08:17:14.585Z,2.20
2023-02-18T08:19:42.737Z,1.83
2023-02-18T08:22:11.306Z,2.10
2023-02-18T08:24:40.238Z,2.17
2023-02-18T08:27:07.909Z,1.60
2023-02-18T08:29:36.001Z,2.38
2023-02-18T08:32:03.968Z,2.33
2023-02-18T08:34:32.272Z,1.40
2023-02-18T08:37:04.895Z,1.67
2023-02-18T08:39:39.595Z,1.90
2023-02-18T08:42:08.232Z,1.58
2023-02-18T08:44:36.322Z,1.60
2023-02-18T08:47:04.749Z,1.73
2023-02-18T08:49:56.624Z,1.52
2023-02-18T08:52:24.638Z,1.30
2023-02-18T08:54:52.814Z,1.48
2023-02-18T08:57:20.674Z,1.40
2023-02-18T08:59:48.988Z,1.80
2023-02-18T09:02:17.023Z,2.17
2023-02-18T09:04:45.922Z,2.53
2023-02-18T09:07:13.958Z,2.60
2023-02-18T09:09:42.447Z,2.53
2023-02-18T09:12:10.639Z,1.80
2023-02-18T09:14:38.738Z,2.25
2023-02-18T09:17:06.890Z,2.08
2023-02-18T09:19:35.238Z,2.63
2023-02-18T09:22:03.280Z,3.15
2023-02-18T09:24:32.743Z,3.20
2023-02-18T09:27:00.740Z,3.10
2023-02-18T09:29:33.198Z,3.10
2023-02-18T09:32:02.590Z,2.90
2023-02-18T09:34:31.497Z,3.63
2023-02-18T09:36:59.514Z,2.78
2023-02-18T09:39:28.116Z,2.60
2023-02-18T09:41:59.815Z,3.03
2023-02-18T09:44:34.714Z,3.28
2023-02-18T09:47:14.459Z,2.83
2023-02-18T09:49:49.865Z,2.95
2023-02-18T09:52:33.931Z,3.60
2023-02-18T09:55:20.860Z,4.97
2023-02-18T10:00:48.951Z,4.50
2023-02-18T10:03:26.040Z,3.72
2023-02-18T10:06:07.444Z,3.33
2023-02-18T10:08:55.584Z,3.88
2023-02-18T10:11:46.619Z,3.28
2023-02-18T10:14:16.073Z,4.22
2023-02-18T10:16:46.583Z,4.03
2023-02-18T10:19:41.991Z,3.88
2023-02-18T10:22:15.013Z,4.45
2023-02-18T10:24:59.123Z,4.07
2023-02-18T10:27:31.075Z,3.42
2023-02-18T10:30:31.253Z,3.85
2023-02-18T10:33:21.817Z,4.20
2023-02-18T10:35:49.832Z,3.70
2023-02-18T10:38:38.605Z,4.88
2023-02-18T10:41:15.686Z,5.50
2023-02-18T10:44:09.258Z,6.38
2023-02-18T10:46:47.463Z,5.72
2023-02-18T10:49:35.427Z,5.28
2023-02-18T10:52:07.047Z,5.97
2023-02-18T10:55:01.702Z,4.65
2023-02-18T10:57:31.737Z,6.15
2023-02-18T11:00:13.853Z,4.40
2023-02-18T11:02:42.576Z,4.88
2023-02-18T11:05:29.688Z,3.70
2023-02-18T11:10:31.798Z,3.78
2023-02-18T11:13:27.838Z,3.00
2023-02-18T11:16:01.119Z,3.00
2023-02-18T11:18:37.048Z,3.38
2023-02-18T11:21:27.500Z,2.20
2023-02-18T11:23:57.328Z,1.83
2023-02-18T11:26:47.592Z,2.17
2023-02-18T11:29:36.519Z,1.90
2023-02-18T11:32:13.938Z,2.47
2023-02-18T11:34:46.927Z,2.13
2023-02-18T11:37:22.716Z,2.72
2023-02-18T11:39:57.337Z,2.55
2023-02-18T11:42:48.165Z,2.58
2023-02-18T11:45:36.921Z,3.57
2023-02-18T11:48:42.458Z,4.75
2023-02-18T11:51:35.573Z,3.45
2023-02-18T11:57:21.041Z,15.68
2023-02-18T11:59:54.447Z,7.30
2023-02-18T12:02:40.987Z,9.23
2023-02-18T12:05:30.667Z,6.07
2023-02-18T12:08:06.855Z,4.15
2023-02-18T12:10:44.494Z,3.00
2023-02-18T12:13:38.143Z,3.72
2023-02-18T12:16:32.460Z,3.20
2023-02-18T12:19:17.473Z,4.68
2023-02-18T12:21:56.773Z,5.03
2023-02-18T12:24:46.234Z,5.50
2023-02-18T12:27:21.068Z,4.30
2023-02-18T12:30:20.548Z,3.45
2023-02-18T12:33:14.366Z,4.38
2023-02-18T12:36:13.185Z,4.53
2023-02-18T12:39:16.052Z,3.47
2023-02-18T12:42:25.259Z,3.45
2023-02-18T12:45:28.174Z,4.15
2023-02-18T12:48:17.575Z,3.72
2023-02-18T12:51:03.582Z,3.60
2023-02-18T12:53:30.963Z,3.33
2023-02-18T12:56:21.888Z,2.70
2023-02-18T12:59:07.819Z,3.22
2023-02-18T13:01:47.128Z,3.15
2023-02-18T13:04:45.182Z,2.65
2023-02-18T13:07:31.340Z,3.10
2023-02-18T13:10:07.679Z,3.17
2023-02-18T13:12:48.667Z,4.03
2023-02-18T13:15:17.835Z,4.03
2023-02-18T13:17:46.368Z,3.42
2023-02-18T13:20:29.866Z,3.67
2023-02-18T13:22:57.992Z,3.20
2023-02-18T13:25:25.682Z,3.15
2023-02-18T13:28:19.370Z,5.15
2023-02-18T13:30:52.921Z,3.97
2023-02-18T13:33:38.753Z,3.38
2023-02-18T13:36:28.372Z,2.80
2023-02-18T13:39:02.568Z,2.60
2023-02-18T13:41:36.323Z,2.67
2023-02-18T13:44:28.649Z,2.50
2023-02-18T13:46:58.183Z,2.90
2023-02-18T13:49:32.559Z,3.08
2023-02-18T13:52:02.456Z,3.78
2023-02-18T13:54:34.583Z,4.78
2023-02-18T13:57:05.331Z,5.60
2023-02-18T13:59:35.528Z,4.60
2023-02-18T14:02:36.062Z,3.60
2023-02-18T14:05:09.812Z,4.70
2023-02-18T14:07:44.775Z,4.55
2023-02-18T14:10:21.122Z,5.30
2023-02-18T14:12:57.219Z,5.55
2023-02-18T14:15:25.081Z,5.20
2023-02-18T14:18:26.640Z,5.80
2023-02-18T14:21:05.408Z,5.95
2023-02-18T14:23:38.825Z,4.97
2023-02-18T14:26:15.709Z,5.20
2023-02-18T14:28:49.399Z,4.75
2023-02-18T14:31:30.343Z,4.85
2023-02-18T14:34:01.221Z,2.95
2023-02-18T14:36:51.368Z,3.78
2023-02-18T14:39:55.410Z,3.50
2023-02-18T14:42:41.348Z,3.67
2023-02-18T14:45:31.499Z,4.27
2023-02-18T14:48:20.125Z,3.13
2023-02-18T14:50:50.512Z,2.60
2023-02-18T14:53:25.298Z,2.63
2023-02-18T14:56:03.562Z,4.40
2023-02-18T14:58:41.498Z,16.15
2023-02-18T15:01:25.888Z,26.40
2023-02-18T15:03:55.470Z,23.63
2023-02-18T15:06:29.529Z,17.83
2023-02-18T15:09:01.497Z,12.23
2023-02-18T15:11:39.367Z,8.20
2023-02-18T15:14:27.813Z,8.65
2023-02-18T15:16:55.845Z,7.65
2023-02-18T15:19:29.521Z,7.13
2023-02-18T15:21:59.153Z,10.73
2023-02-18T15:24:36.790Z,11.77
2023-02-18T15:27:28.491Z,11.70
2023-02-18T15:30:20.719Z,12.85
2023-02-18T15:32:59.244Z,13.25
2023-02-18T15:35:30.263Z,11.82
2023-02-18T15:38:00.233Z,10.52
2023-02-18T15:40:34.837Z,8.93
2023-02-18T15:43:05.168Z,10.40
2023-02-18T15:45:41.849Z,13.52
2023-02-18T15:48:33.416Z,15.23
2023-02-18T15:51:16.847Z,14.27
2023-02-18T15:53:49.084Z,12.90
2023-02-18T15:56:39.057Z,19.33
2023-02-18T15:59:24.887Z,21.45
2023-02-18T16:01:59.865Z,19.73
2023-02-18T16:04:32.053Z,18.85
2023-02-18T16:07:23.527Z,16.30
2023-02-18T16:09:57.871Z,29.25
2023-02-18T16:12:32.472Z,15.25
2023-02-18T16:15:01.035Z,41.70
2023-02-18T16:17:30.183Z,97.22
2023-02-18T16:20:17.365Z,107.18
2023-02-18T16:22:52.973Z,57.13
2023-02-18T16:25:38.871Z,66.27
2023-02-18T16:28:28.041Z,58.10
2023-02-18T16:30:57.776Z,35.92
2023-02-18T16:33:25.322Z,23.17
2023-02-18T16:35:52.795Z,35.80
2023-02-18T16:38:22.556Z,25.48
2023-02-18T16:40:50.610Z,12.55
2023-02-18T16:43:23.864Z,11.35
2023-02-18T16:45:53.894Z,10.38
2023-02-18T16:48:40.904Z,9.73
2023-02-18T16:51:18.219Z,8.35
2023-02-18T16:53:45.946Z,6.68
2023-02-18T16:56:18.742Z,7.18
2023-02-18T16:58:46.625Z,10.88
2023-02-18T17:01:29.829Z,16.50
2023-02-18T17:04:00.651Z,14.20
2023-02-18T17:06:31.883Z,10.57
2023-02-18T17:09:00.354Z,9.60
2023-02-18T17:11:35.459Z,6.20
2023-02-18T17:14:05.249Z,5.95
2023-02-18T17:16:32.755Z,5.05
2023-02-18T17:19:00.364Z,5.93
2023-02-18T17:21:27.622Z,5.30
2023-02-18T17:23:55.289Z,4.60
2023-02-18T17:26:30.159Z,3.50
2023-02-18T17:28:59.514Z,3.83
2023-02-18T17:31:29.423Z,3.60
2023-02-18T17:34:00.192Z,2.80
2023-02-18T17:36:27.924Z,3.55
2023-02-18T17:38:55.517Z,3.97
2023-02-18T17:41:22.837Z,3.03
2023-02-18T17:43:50.590Z,5.88
2023-02-18T17:46:19.369Z,4.95
2023-02-18T17:48:47.557Z,4.10
2023-02-18T17:51:26.712Z,3.45
2023-02-18T17:53:54.447Z,4.07
2023-02-18T17:56:22.244Z,4.00
2023-02-18T17:58:49.992Z,4.07
2023-02-18T18:01:18.767Z,4.18
2023-02-18T18:03:46.428Z,4.22
2023-02-18T18:06:18.280Z,4.10
2023-02-18T18:08:47.326Z,4.20
2023-02-18T18:11:18.321Z,6.10
2023-02-18T18:13:46.680Z,6.15
2023-02-18T18:16:15.739Z,5.35
2023-02-18T18:18:44.177Z,6.97
2023-02-18T18:21:28.229Z,7.40
2023-02-18T18:23:55.872Z,7.15
2023-02-18T18:26:23.241Z,7.50
2023-02-18T18:28:50.934Z,8.65
2023-02-18T18:31:21.991Z,7.65
2023-02-18T18:33:53.600Z,7.80
2023-02-18T18:36:24.259Z,7.85
2023-02-18T18:38:52.817Z,9.50
2023-02-18T18:41:22.342Z,13.45
2023-02-18T18:43:51.022Z,12.13
2023-02-18T18:46:18.611Z,10.93
2023-02-18T18:48:46.461Z,11.68
2023-02-18T18:51:21.840Z,11.68
2023-02-18T18:53:49.390Z,12.10
2023-02-18T18:56:16.649Z,11.95
2023-02-18T18:58:44.167Z,10.95
2023-02-18T19:01:17.496Z,11.45
2023-02-18T19:03:49.074Z,8.95
2023-02-18T19:06:17.601Z,8.77
2023-02-18T19:08:45.864Z,12.60
2023-02-18T19:11:13.624Z,10.80
2023-02-18T19:13:41.695Z,16.83
2023-02-18T19:16:35.032Z,12.25
2023-02-18T19:19:02.739Z,10.13
2023-02-18T19:21:29.970Z,8.50
2023-02-18T19:23:57.565Z,11.88
2023-02-18T19:26:25.031Z,11.13
2023-02-18T19:28:52.799Z,12.90
2023-02-18T19:31:24.494Z,12.00
2023-02-18T19:33:52.779Z,11.52
2023-02-18T19:36:20.307Z,11.43
2023-02-18T19:38:47.884Z,12.55
2023-02-18T19:41:17.132Z,11.13
2023-02-18T19:43:46.715Z,12.30
2023-02-18T19:46:17.227Z,10.10
2023-02-18T19:48:49.685Z,10.23
2023-02-18T19:51:17.113Z,7.57
2023-02-18T19:53:44.969Z,10.13
2023-02-18T19:56:12.276Z,6.50
2023-02-18T19:58:40.343Z,6.50
2023-02-18T20:01:15.728Z,8.23
2023-02-18T20:03:44.025Z,6.80
2023-02-18T20:06:19.046Z,7.38
2023-02-18T20:08:47.203Z,10.67
2023-02-18T20:11:14.479Z,7.13
2023-02-18T20:13:42.347Z,6.50
2023-02-18T20:16:10.626Z,6.40
2023-02-18T20:18:38.349Z,14.93
2023-02-18T20:21:05.685Z,10.55
2023-02-18T20:23:33.168Z,16.20
2023-02-18T20:26:04.237Z,18.42
2023-02-18T20:28:31.784Z,14.57
2023-02-18T20:31:07.558Z,15.45
2023-02-18T20:33:35.790Z,13.02
2023-02-18T20:36:05.318Z,16.33
2023-02-18T20:38:34.069Z,6.25
2023-02-18T20:41:09.559Z,13.95
2023-02-18T20:43:38.124Z,13.20
2023-02-18T20:46:08.248Z,7.38
2023-02-18T20:48:36.370Z,14.18
2023-02-18T20:51:09.157Z,15.35
2023-02-18T20:53:38.641Z,16.67
2023-02-18T20:56:06.673Z,10.13
2023-02-18T20:58:35.225Z,13.50
2023-02-18T21:01:10.542Z,11.10
2023-02-18T21:03:39.443Z,13.18
2023-02-18T21:06:14.047Z,11.75
2023-02-18T21:08:43.685Z,9.77
2023-02-18T21:11:17.806Z,10.38
2023-02-18T21:13:49.687Z,10.50
2023-02-18T21:16:18.390Z,11.32
2023-02-18T21:18:49.285Z,7.53
2023-02-18T21:21:17.451Z,11.25
2023-02-18T21:23:45.697Z,5.03
2023-02-18T21:26:16.208Z,3.30
2023-02-18T21:28:51.627Z,4.28
2023-02-18T21:31:28.371Z,5.57
2023-02-18T21:34:07.739Z,7.30
2023-02-18T21:36:35.012Z,10.48
2023-02-18T21:39:06.395Z,4.22
2023-02-18T21:41:36.457Z,10.38
2023-02-18T21:44:10.616Z,13.48
2023-02-18T21:46:39.763Z,6.95
2023-02-18T21:49:12.588Z,3.80
2023-02-18T21:51:58.137Z,9.27
2023-02-18T21:54:29.170Z,7.30
2023-02-18T21:56:58.181Z,6.30
2023-02-18T21:59:27.972Z,6.25
2023-02-18T22:01:57.023Z,8.40
2023-02-18T22:04:25.561Z,11.82
2023-02-18T22:06:52.993Z,6.43
2023-02-18T22:09:20.580Z,5.40
2023-02-18T22:11:47.892Z,7.75
2023-02-18T22:14:17.044Z,6.53
2023-02-18T22:16:44.590Z,6.07
2023-02-18T22:19:13.205Z,3.53
2023-02-18T22:21:41.491Z,7.22
2023-02-18T22:24:11.183Z,7.43
2023-02-18T22:26:38.721Z,6.07
2023-02-18T22:29:06.221Z,4.50
2023-02-18T22:31:33.612Z,5.10
2023-02-18T22:34:01.497Z,4.72
2023-02-18T22:36:29.780Z,3.92
2023-02-18T22:39:00.723Z,3.28
2023-02-18T22:41:31.751Z,2.58
2023-02-18T22:44:11.878Z,3.83
2023-02-18T22:46:39.845Z,3.45
2023-02-18T22:49:08.525Z,2.83
2023-02-18T22:51:38.309Z,2.22
2023-02-18T22:54:10.162Z,1.90
2023-02-18T22:56:37.341Z,2.22
2023-02-18T22:59:05.342Z,2.08
2023-02-18T23:01:38.182Z,1.25
2023-02-18T23:04:16.430Z,1.98
2023-02-18T23:06:46.030Z,1.77
2023-02-18T23:09:16.337Z,1.85
2023-02-18T23:11:43.834Z,1.92
2023-02-18T23:14:21.436Z,2.03
2023-02-18T23:17:25.798Z,1.70
2023-02-18T23:20:08.684Z,1.98
2023-02-18T23:22:38.032Z,1.80
2023-02-18T23:25:08.877Z,1.60
2023-02-18T23:27:36.464Z,1.67
2023-02-18T23:30:03.969Z,1.73
2023-02-18T23:32:32.163Z,1.58
2023-02-18T23:34:59.546Z,1.83
2023-02-18T23:37:45.496Z,1.67
2023-02-18T23:40:15.017Z,1.60
2023-02-18T23:42:42.645Z,3.00
2023-02-18T23:45:09.938Z,3.47
2023-02-18T23:47:37.479Z,3.25
2023-02-18T23:50:04.973Z,2.53
2023-02-18T23:52:33.682Z,1.85
2023-02-18T23:55:01.037Z,1.70
2023-02-18T23:57:32.399Z,2.38
2023-02-18T23:59:59.606Z,2.28
